createdAt,value
2019-05-21T00:00:10.479Z,61.90
2019-05-21T00:02:41.086Z,69.27
2019-05-21T00:05:10.851Z,67.70
2019-05-21T00:07:40.821Z,63.28
2019-05-21T00:10:10.355Z,79.58
2019-05-21T00:12:39.731Z,93.62
2019-05-21T00:15:09.227Z,83.70
2019-05-21T00:17:38.531Z,87.30
2019-05-21T00:20:08.433Z,99.95
2019-05-21T00:22:38.861Z,101.95
2019-05-21T00:25:08.756Z,90.10
2019-05-21T00:27:38.052Z,97.57
2019-05-21T00:30:43.963Z,101.12
2019-05-21T00:33:49.515Z,94.95
2019-05-21T00:37:00.108Z,93.82
2019-05-21T00:40:05.887Z,91.30
2019-05-21T00:42:38.275Z,98.58
2019-05-21T00:45:10.815Z,97.08
2019-05-21T00:47:40.271Z,105.67
2019-05-21T00:50:10.335Z,91.97
2019-05-21T00:52:39.640Z,93.85
2019-05-21T00:55:08.961Z,88.60
2019-05-21T00:57:38.286Z,85.22
2019-05-21T01:00:08.047Z,100.30
2019-05-21T01:02:37.465Z,102.55
2019-05-21T01:05:06.838Z,85.72
2019-05-21T01:07:36.154Z,95.80
2019-05-21T01:10:08.679Z,96.78
2019-05-21T01:12:37.983Z,97.37
2019-05-21T01:15:07.553Z,87.12
2019-05-21T01:17:38.059Z,96.00
2019-05-21T01:20:07.786Z,83.25
2019-05-21T01:22:37.084Z,87.85
2019-05-21T01:25:06.669Z,79.45
2019-05-21T01:27:35.965Z,82.22
2019-05-21T01:30:06.603Z,86.05
2019-05-21T01:32:35.913Z,73.02
2019-05-21T01:35:16.568Z,71.40
2019-05-21T01:37:39.150Z,68.90
2019-05-21T01:40:08.693Z,69.50
2019-05-21T01:42:37.988Z,60.60
2019-05-21T01:45:07.747Z,66.25
2019-05-21T01:47:37.141Z,67.25
2019-05-21T01:50:06.972Z,64.60
2019-05-21T01:52:36.464Z,55.20
2019-05-21T01:55:06.799Z,65.80
2019-05-21T01:57:36.132Z,68.90
2019-05-21T02:00:06.957Z,65.05
2019-05-21T02:02:36.429Z,61.90
2019-05-21T02:05:06.715Z,60.88
2019-05-21T02:07:36.676Z,56.23
2019-05-21T02:10:07.507Z,61.30
2019-05-21T02:12:36.810Z,60.50
2019-05-21T02:15:07.254Z,53.60
2019-05-21T02:17:36.580Z,57.03
2019-05-21T02:20:06.406Z,62.83
2019-05-21T02:22:35.722Z,58.13
2019-05-21T02:25:07.028Z,60.03
2019-05-21T02:27:36.335Z,63.65
2019-05-21T02:30:09.694Z,61.40
2019-05-21T02:32:40.288Z,58.10
2019-05-21T02:35:10.434Z,69.32
2019-05-21T02:37:40.185Z,52.95
2019-05-21T02:40:09.911Z,60.08
2019-05-21T02:42:39.221Z,70.22
2019-05-21T02:45:09.583Z,61.73
2019-05-21T02:47:38.910Z,60.10
2019-05-21T02:50:08.625Z,64.22
2019-05-21T02:52:37.926Z,58.42
2019-05-21T02:55:08.172Z,60.70
2019-05-21T02:57:41.287Z,62.27
2019-05-21T03:00:30.748Z,61.08
2019-05-21T03:03:01.827Z,62.30
2019-05-21T03:05:31.226Z,56.65
2019-05-21T03:08:00.540Z,62.65
2019-05-21T03:10:30.918Z,64.87
2019-05-21T03:13:00.218Z,61.28
2019-05-21T03:15:29.535Z,65.87
2019-05-21T03:17:58.856Z,57.17
2019-05-21T03:20:28.159Z,61.08
2019-05-21T03:22:57.464Z,68.30
2019-05-21T03:25:27.764Z,58.30
2019-05-21T03:27:57.082Z,52.85
2019-05-21T03:30:26.425Z,45.50
2019-05-21T03:32:55.744Z,55.08
2019-05-21T03:35:25.043Z,46.90
2019-05-21T03:37:55.420Z,52.23
2019-05-21T03:40:24.733Z,49.75
2019-05-21T03:42:54.304Z,53.87
2019-05-21T03:45:23.607Z,54.80
2019-05-21T03:47:53.693Z,52.03
2019-05-21T03:50:23.011Z,50.03
2019-05-21T03:52:52.345Z,46.80
2019-05-21T03:55:22.620Z,46.45
2019-05-21T03:57:51.927Z,47.35
2019-05-21T04:00:21.662Z,48.35
2019-05-21T04:02:50.967Z,47.80
2019-05-21T04:05:23.465Z,39.42
2019-05-21T04:07:53.171Z,48.15
2019-05-21T04:10:23.893Z,41.75
2019-05-21T04:13:09.051Z,40.35
2019-05-21T04:15:52.020Z,37.85
2019-05-21T04:18:32.197Z,40.90
2019-05-21T04:21:01.513Z,43.87
2019-05-21T04:23:30.797Z,45.17
2019-05-21T04:26:00.113Z,41.65
2019-05-21T04:28:29.415Z,37.38
2019-05-21T04:30:58.723Z,43.30
2019-05-21T04:33:28.077Z,47.20
2019-05-21T04:35:57.387Z,40.60
2019-05-21T04:38:26.699Z,43.87
2019-05-21T04:40:56.006Z,45.80
2019-05-21T04:43:25.321Z,44.95
2019-05-21T04:45:54.618Z,40.03
2019-05-21T04:48:23.909Z,41.25
2019-05-21T04:50:53.212Z,41.25
2019-05-21T04:53:22.532Z,41.13
2019-05-21T04:55:51.831Z,40.43
2019-05-21T04:58:21.197Z,32.53
2019-05-21T05:00:50.507Z,42.70
2019-05-21T05:03:19.800Z,40.88
2019-05-21T05:05:49.109Z,33.15
2019-05-21T05:08:18.427Z,32.78
2019-05-21T05:10:49.371Z,42.75
2019-05-21T05:13:19.014Z,37.17
2019-05-21T05:15:49.255Z,50.92
2019-05-21T05:18:18.564Z,50.08
2019-05-21T05:20:47.879Z,46.18
2019-05-21T05:23:17.255Z,40.40
2019-05-21T05:25:46.560Z,36.83
2019-05-21T05:28:16.318Z,49.25
2019-05-21T05:30:45.614Z,42.62
2019-05-21T05:33:14.926Z,39.33
2019-05-21T05:35:44.228Z,39.10
2019-05-21T05:38:13.540Z,41.95
2019-05-21T05:40:42.847Z,37.35
2019-05-21T05:43:12.159Z,39.33
2019-05-21T05:45:41.479Z,41.83
2019-05-21T05:48:10.776Z,30.72
2019-05-21T05:50:41.720Z,35.63
2019-05-21T05:53:11.015Z,36.05
2019-05-21T05:55:40.319Z,37.05
2019-05-21T05:58:09.637Z,39.80
2019-05-21T06:00:38.938Z,35.30
2019-05-21T06:03:08.237Z,43.83
2019-05-21T06:05:37.863Z,39.00
2019-05-21T06:08:07.163Z,35.33
2019-05-21T06:10:39.920Z,36.93
2019-05-21T06:13:07.524Z,34.40
2019-05-21T06:15:36.819Z,32.33
2019-05-21T06:18:06.131Z,39.40
2019-05-21T06:20:35.428Z,39.20
2019-05-21T06:23:04.743Z,34.98
2019-05-21T06:25:34.037Z,39.85
2019-05-21T06:28:05.467Z,42.27
2019-05-21T06:30:34.783Z,38.90
2019-05-21T06:33:04.105Z,34.95
2019-05-21T06:35:33.439Z,36.35
2019-05-21T06:38:16.562Z,48.78
2019-05-21T06:40:34.107Z,41.28
2019-05-21T06:43:03.413Z,42.48
2019-05-21T06:45:32.711Z,38.20
2019-05-21T06:48:02.021Z,38.83
2019-05-21T06:50:31.332Z,46.98
2019-05-21T06:53:00.643Z,34.23
2019-05-21T06:55:29.960Z,36.10
2019-05-21T06:57:59.267Z,40.33
2019-05-21T07:00:28.576Z,34.43
2019-05-21T07:02:57.882Z,33.88
2019-05-21T07:05:28.198Z,31.48
2019-05-21T07:07:57.542Z,33.55
2019-05-21T07:10:26.843Z,35.15
2019-05-21T07:12:56.140Z,36.00
2019-05-21T07:15:25.469Z,30.10
2019-05-21T07:17:54.832Z,47.60
2019-05-21T07:20:24.407Z,43.48
2019-05-21T07:22:53.809Z,42.20
2019-05-21T07:25:23.303Z,38.10
2019-05-21T07:27:52.607Z,36.60
2019-05-21T07:30:21.927Z,40.85
2019-05-21T07:32:52.095Z,44.50
2019-05-21T07:35:21.969Z,44.45
2019-05-21T07:37:52.338Z,40.28
2019-05-21T07:40:21.708Z,42.45
2019-05-21T07:42:51.020Z,43.48
2019-05-21T07:45:20.327Z,45.25
2019-05-21T07:47:49.631Z,49.70
2019-05-21T07:50:18.942Z,45.12
2019-05-21T07:52:48.247Z,46.45
2019-05-21T07:55:17.692Z,47.13
2019-05-21T07:57:46.992Z,57.50
2019-05-21T08:00:19.527Z,44.40
2019-05-21T08:02:48.830Z,51.60
2019-05-21T08:05:18.408Z,53.17
2019-05-21T08:07:47.717Z,47.23
2019-05-21T08:10:17.155Z,49.33
2019-05-21T08:12:46.462Z,46.25
2019-05-21T08:15:16.047Z,53.15
2019-05-21T08:17:45.351Z,61.37
2019-05-21T08:20:16.395Z,57.48
2019-05-21T08:22:45.707Z,60.23
2019-05-21T08:25:15.334Z,50.43
2019-05-21T08:27:45.659Z,50.67
2019-05-21T08:30:15.616Z,43.68
2019-05-21T08:32:44.911Z,38.95
2019-05-21T08:35:14.454Z,43.60
2019-05-21T08:37:43.767Z,41.30
2019-05-21T08:40:13.601Z,48.63
2019-05-21T08:42:42.919Z,46.40
2019-05-21T08:45:12.662Z,46.40
2019-05-21T08:47:41.964Z,39.60
2019-05-21T08:50:12.613Z,36.80
2019-05-21T08:52:41.943Z,39.83
2019-05-21T08:55:11.595Z,39.95
2019-05-21T08:57:40.914Z,34.95
2019-05-21T09:00:16.474Z,41.88
2019-05-21T09:02:45.768Z,35.88
2019-05-21T09:05:15.147Z,34.30
2019-05-21T09:07:44.659Z,29.37
2019-05-21T09:10:15.775Z,25.12
2019-05-21T09:12:45.172Z,28.07
2019-05-21T09:15:14.805Z,28.98
2019-05-21T09:17:44.119Z,32.42
2019-05-21T09:20:15.470Z,30.68
2019-05-21T09:22:44.779Z,23.62
2019-05-21T09:25:14.255Z,20.27
2019-05-21T09:27:43.647Z,20.08
2019-05-21T09:30:13.585Z,19.45
2019-05-21T09:32:42.903Z,20.43
2019-05-21T09:35:12.365Z,20.75
2019-05-21T09:37:41.739Z,17.20
2019-05-21T09:40:12.007Z,20.68
2019-05-21T09:42:44.917Z,16.82
2019-05-21T09:45:12.950Z,22.65
2019-05-21T09:47:42.322Z,19.35
2019-05-21T09:50:12.167Z,16.27
2019-05-21T09:52:41.485Z,20.20
2019-05-21T09:55:11.162Z,20.62
2019-05-21T09:57:51.068Z,23.92
2019-05-21T10:00:34.547Z,16.80
2019-05-21T10:03:08.595Z,24.77
2019-05-21T10:05:37.911Z,18.92
2019-05-21T10:08:07.217Z,19.65
2019-05-21T10:10:36.595Z,15.00
2019-05-21T10:13:05.884Z,15.30
2019-05-21T10:15:35.175Z,15.53
2019-05-21T10:18:05.028Z,13.78
2019-05-21T10:20:34.324Z,16.40
2019-05-21T10:23:03.638Z,15.80
2019-05-21T10:25:32.924Z,13.85
2019-05-21T10:28:02.236Z,18.48
2019-05-21T10:30:31.685Z,14.98
2019-05-21T10:33:00.997Z,15.80
2019-05-21T10:35:31.229Z,18.30
2019-05-21T10:38:00.551Z,17.45
2019-05-21T10:40:29.855Z,16.37
2019-05-21T10:42:59.150Z,17.70
2019-05-21T10:45:28.552Z,17.55
2019-05-21T10:47:57.937Z,20.15
2019-05-21T10:50:27.253Z,17.42
2019-05-21T10:52:56.626Z,12.47
2019-05-21T10:55:25.943Z,12.43
2019-05-21T10:57:55.266Z,14.28
2019-05-21T11:00:25.391Z,13.25
2019-05-21T11:02:56.336Z,11.10
2019-05-21T11:05:29.005Z,13.13
2019-05-21T11:08:22.135Z,13.40
2019-05-21T11:10:29.455Z,15.43
2019-05-21T11:12:58.772Z,15.32
2019-05-21T11:15:28.108Z,16.42
2019-05-21T11:18:09.936Z,14.43
2019-05-21T11:20:28.410Z,18.62
2019-05-21T11:22:58.463Z,17.77
2019-05-21T11:25:27.891Z,18.90
2019-05-21T11:27:57.190Z,18.12
2019-05-21T11:30:27.315Z,19.20
2019-05-21T11:32:57.091Z,19.40
2019-05-21T11:35:26.477Z,19.27
2019-05-21T11:37:55.876Z,22.90
2019-05-21T11:40:25.829Z,21.37
2019-05-21T11:42:55.227Z,16.82
2019-05-21T11:45:32.065Z,18.57
2019-05-21T11:47:55.884Z,17.52
2019-05-21T11:50:25.195Z,19.23
2019-05-21T11:52:54.507Z,20.50
2019-05-21T11:55:23.799Z,23.77
2019-05-21T11:57:53.107Z,21.90
2019-05-21T12:00:25.903Z,19.50
2019-05-21T12:02:55.267Z,15.58
2019-05-21T12:05:24.664Z,21.00
2019-05-21T12:07:54.011Z,19.02
2019-05-21T12:10:23.319Z,18.82
2019-05-21T12:12:52.623Z,19.42
2019-05-21T12:15:22.009Z,16.00
2019-05-21T12:17:51.303Z,19.52
2019-05-21T12:20:35.218Z,16.62
2019-05-21T12:22:51.958Z,17.98
2019-05-21T12:25:21.271Z,18.37
2019-05-21T12:27:50.578Z,19.62
2019-05-21T12:30:21.200Z,25.10
2019-05-21T12:32:50.497Z,27.80
2019-05-21T12:35:19.799Z,18.35
2019-05-21T12:37:49.149Z,20.48
2019-05-21T12:40:18.963Z,18.30
2019-05-21T12:42:48.256Z,24.05
2019-05-21T12:45:17.560Z,18.25
2019-05-21T12:47:50.474Z,22.10
2019-05-21T12:50:18.112Z,15.55
2019-05-21T12:52:47.412Z,21.33
2019-05-21T12:55:16.788Z,20.60
2019-05-21T12:57:46.104Z,21.37
2019-05-21T13:00:16.035Z,21.68
2019-05-21T13:02:45.336Z,20.12
2019-05-21T13:05:15.193Z,19.37
2019-05-21T13:07:44.488Z,20.82
2019-05-21T13:10:14.132Z,16.75
2019-05-21T13:12:43.611Z,18.75
2019-05-21T13:15:12.989Z,23.85
2019-05-21T13:17:42.301Z,21.40
2019-05-21T13:20:12.815Z,24.45
2019-05-21T13:22:42.107Z,21.45
2019-05-21T13:25:11.675Z,29.02
2019-05-21T13:27:41.005Z,28.25
2019-05-21T13:30:11.046Z,20.70
2019-05-21T13:32:43.678Z,19.48
2019-05-21T13:35:12.886Z,21.37
2019-05-21T13:37:42.202Z,27.05
2019-05-21T13:40:12.846Z,21.97
2019-05-21T13:42:42.149Z,23.45
2019-05-21T13:45:13.171Z,27.50
2019-05-21T13:47:50.327Z,22.52
2019-05-21T13:50:19.781Z,19.27
2019-05-21T13:52:49.072Z,19.65
2019-05-21T13:55:18.660Z,23.02
2019-05-21T13:57:47.973Z,19.52
2019-05-21T14:00:19.553Z,21.02
2019-05-21T14:02:49.392Z,21.02
2019-05-21T14:05:18.991Z,23.20
2019-05-21T14:07:48.286Z,21.37
2019-05-21T14:10:20.655Z,22.87
2019-05-21T14:12:48.599Z,24.27
2019-05-21T14:15:17.904Z,25.88
2019-05-21T14:17:47.375Z,25.23
2019-05-21T14:20:16.860Z,24.15
2019-05-21T14:22:46.189Z,21.10
2019-05-21T14:25:15.833Z,19.73
2019-05-21T14:27:45.371Z,23.32
2019-05-21T14:30:15.190Z,23.15
2019-05-21T14:32:44.580Z,30.90
2019-05-21T14:35:14.118Z,24.43
2019-05-21T14:37:43.407Z,26.07
2019-05-21T14:40:28.505Z,23.00
2019-05-21T14:42:58.592Z,21.40
2019-05-21T14:45:15.754Z,23.67
2019-05-21T14:47:45.060Z,25.12
2019-05-21T14:50:15.625Z,21.95
2019-05-21T14:52:44.944Z,30.48
2019-05-21T14:55:14.316Z,24.65
2019-05-21T14:57:43.624Z,24.63
2019-05-21T15:00:34.570Z,25.62
2019-05-21T15:03:04.107Z,23.98
2019-05-21T15:05:35.116Z,24.65
2019-05-21T15:08:05.973Z,24.40
2019-05-21T15:10:47.803Z,23.05
2019-05-21T15:13:06.756Z,26.07
2019-05-21T15:15:37.198Z,28.57
2019-05-21T15:18:06.673Z,28.90
2019-05-21T15:20:46.593Z,27.15
2019-05-21T15:23:15.966Z,26.02
2019-05-21T15:25:45.959Z,26.05
2019-05-21T15:28:15.315Z,23.90
2019-05-21T15:30:44.633Z,22.30
2019-05-21T15:33:13.932Z,23.85
2019-05-21T15:35:43.331Z,25.05
2019-05-21T15:38:12.702Z,22.67
2019-05-21T15:40:42.097Z,21.10
2019-05-21T15:43:11.398Z,20.05
2019-05-21T15:45:40.700Z,19.02
2019-05-21T15:48:10.012Z,29.85
2019-05-21T15:50:39.304Z,23.20
2019-05-21T15:53:08.619Z,24.40
2019-05-21T15:55:37.923Z,26.52
2019-05-21T15:58:07.221Z,30.43
2019-05-21T16:00:36.536Z,29.65
2019-05-21T16:03:05.848Z,32.08
2019-05-21T16:05:35.158Z,28.32
2019-05-21T16:08:04.932Z,28.05
2019-05-21T16:10:34.231Z,24.77
2019-05-21T16:13:03.545Z,25.55
2019-05-21T16:15:32.961Z,31.30
2019-05-21T16:18:02.296Z,29.20
2019-05-21T16:20:31.666Z,33.00
2019-05-21T16:23:01.007Z,31.05
2019-05-21T16:25:30.307Z,26.02
2019-05-21T16:27:59.624Z,28.38
2019-05-21T16:30:29.096Z,30.80
2019-05-21T16:32:58.401Z,33.33
2019-05-21T16:35:28.185Z,32.55
2019-05-21T16:37:57.485Z,28.17
2019-05-21T16:40:27.026Z,32.05
2019-05-21T16:42:56.352Z,29.10
2019-05-21T16:45:25.824Z,25.50
2019-05-21T16:47:55.433Z,27.05
2019-05-21T16:50:24.910Z,22.58
2019-05-21T16:52:54.225Z,25.90
2019-05-21T16:55:23.580Z,35.13
2019-05-21T16:57:56.028Z,27.10
2019-05-21T17:00:25.692Z,25.17
2019-05-21T17:02:54.991Z,21.87
2019-05-21T17:05:24.383Z,25.52
2019-05-21T17:07:53.691Z,26.40
2019-05-21T17:10:22.980Z,30.60
2019-05-21T17:12:52.303Z,27.80
2019-05-21T17:15:21.747Z,23.30
2019-05-21T17:17:51.060Z,26.12
2019-05-21T17:20:20.396Z,26.10
2019-05-21T17:22:49.696Z,24.52
2019-05-21T17:25:19.152Z,24.72
2019-05-21T17:27:48.460Z,30.35
2019-05-21T17:30:18.711Z,29.52
2019-05-21T17:32:48.040Z,32.53
2019-05-21T17:35:18.003Z,33.25
2019-05-21T17:37:47.307Z,40.12
2019-05-21T17:40:16.955Z,30.17
2019-05-21T17:42:46.611Z,36.80
2019-05-21T17:45:16.094Z,31.93
2019-05-21T17:47:45.415Z,31.45
2019-05-21T17:50:14.959Z,35.50
2019-05-21T17:52:44.447Z,38.10
2019-05-21T17:55:14.556Z,36.28
2019-05-21T17:57:44.143Z,33.65
2019-05-21T18:00:16.883Z,34.83
2019-05-21T18:02:46.364Z,40.75
2019-05-21T18:05:17.213Z,38.67
2019-05-21T18:07:47.070Z,35.03
2019-05-21T18:10:17.119Z,27.90
2019-05-21T18:12:46.595Z,39.20
2019-05-21T18:15:16.935Z,42.45
2019-05-21T18:17:46.407Z,31.37
2019-05-21T18:20:17.503Z,33.80
2019-05-21T18:22:48.374Z,41.68
2019-05-21T18:25:17.723Z,35.85
2019-05-21T18:27:47.365Z,31.62
2019-05-21T18:30:19.360Z,28.07
2019-05-21T18:32:49.309Z,31.23
2019-05-21T18:35:18.615Z,25.92
2019-05-21T18:37:48.435Z,41.20
2019-05-21T18:40:17.734Z,33.00
2019-05-21T18:42:47.112Z,32.28
2019-05-21T18:45:16.494Z,31.87
2019-05-21T18:47:45.982Z,39.58
2019-05-21T18:50:15.483Z,40.30
2019-05-21T18:52:44.929Z,41.28
2019-05-21T18:55:14.561Z,42.43
2019-05-21T18:57:45.407Z,48.33
2019-05-21T19:00:15.252Z,43.92
2019-05-21T19:02:44.627Z,43.35
2019-05-21T19:05:14.774Z,44.75
2019-05-21T19:07:44.247Z,52.58
2019-05-21T19:10:13.982Z,53.42
2019-05-21T19:12:43.472Z,58.52
2019-05-21T19:15:13.515Z,47.00
2019-05-21T19:17:42.971Z,47.65
2019-05-21T19:20:13.712Z,48.28
2019-05-21T19:22:43.071Z,50.52
2019-05-21T19:25:12.640Z,52.30
2019-05-21T19:27:42.008Z,51.77
2019-05-21T19:30:13.219Z,61.00
2019-05-21T19:32:42.535Z,51.90
2019-05-21T19:35:12.137Z,52.35
2019-05-21T19:37:41.463Z,54.40
2019-05-21T19:40:11.545Z,52.50
2019-05-21T19:42:53.775Z,56.53
2019-05-21T19:45:12.471Z,56.90
2019-05-21T19:47:41.764Z,55.55
2019-05-21T19:50:13.108Z,56.18
2019-05-21T19:52:42.407Z,45.98
2019-05-21T19:55:12.352Z,54.25
2019-05-21T19:57:42.839Z,54.23
2019-05-21T20:00:12.476Z,46.68
2019-05-21T20:02:42.556Z,49.13
2019-05-21T20:05:12.220Z,49.23
2019-05-21T20:07:41.591Z,52.15
2019-05-21T20:10:11.132Z,46.53
2019-05-21T20:12:40.848Z,52.30
2019-05-21T20:15:10.764Z,44.42
2019-05-21T20:17:40.986Z,53.00
2019-05-21T20:20:13.190Z,52.20
2019-05-21T20:22:43.584Z,51.30
2019-05-21T20:25:13.390Z,46.90
2019-05-21T20:27:43.100Z,53.35
2019-05-21T20:30:15.361Z,64.85
2019-05-21T20:32:46.423Z,61.70
2019-05-21T20:35:17.868Z,59.48
2019-05-21T20:37:48.813Z,55.73
2019-05-21T20:40:18.521Z,73.10
2019-05-21T20:42:48.119Z,56.63
2019-05-21T20:45:19.783Z,61.05
2019-05-21T20:47:50.913Z,51.05
2019-05-21T20:50:22.024Z,66.28
2019-05-21T20:52:51.839Z,59.38
2019-05-21T20:55:22.650Z,73.55
2019-05-21T20:57:53.159Z,66.12
2019-05-21T21:00:40.624Z,68.83
2019-05-21T21:03:12.134Z,71.47
2019-05-21T21:05:41.783Z,64.67
2019-05-21T21:08:12.416Z,68.80
2019-05-21T21:10:42.268Z,63.08
2019-05-21T21:13:13.308Z,72.08
2019-05-21T21:15:43.177Z,67.10
2019-05-21T21:18:13.669Z,71.20
2019-05-21T21:20:42.955Z,67.12
2019-05-21T21:23:14.171Z,67.15
2019-05-21T21:25:43.840Z,75.57
2019-05-21T21:28:13.323Z,73.00
2019-05-21T21:30:43.366Z,74.55
2019-05-21T21:33:13.097Z,68.85
2019-05-21T21:35:43.402Z,79.87
2019-05-21T21:38:14.875Z,59.25
2019-05-21T21:40:44.541Z,76.50
2019-05-21T21:43:13.868Z,70.70
2019-05-21T21:45:44.312Z,62.45
2019-05-21T21:48:14.897Z,68.83
2019-05-21T21:50:44.673Z,72.03
2019-05-21T21:53:15.567Z,55.00
2019-05-21T21:55:44.871Z,60.73
2019-05-21T21:58:14.179Z,65.15
2019-05-21T22:00:56.779Z,56.18
2019-05-21T22:05:58.340Z,53.23
2019-05-21T22:08:29.535Z,52.78
2019-05-21T22:10:59.047Z,47.40
2019-05-21T22:13:28.525Z,48.17
2019-05-21T22:15:58.201Z,44.38
2019-05-21T22:18:28.055Z,51.65
2019-05-21T22:20:57.827Z,55.92
2019-05-21T22:23:27.471Z,57.10
2019-05-21T22:25:56.780Z,47.75
2019-05-21T22:28:26.258Z,51.23
2019-05-21T22:30:56.207Z,44.25
2019-05-21T22:33:25.893Z,46.02
2019-05-21T22:35:55.204Z,47.65
2019-05-21T22:38:25.598Z,36.73
2019-05-21T22:40:55.247Z,40.92
2019-05-21T22:43:24.700Z,46.90
2019-05-21T22:45:54.139Z,47.05
2019-05-21T22:48:23.443Z,40.58
2019-05-21T22:50:52.744Z,39.38
2019-05-21T22:53:22.194Z,37.55
2019-05-21T22:55:51.656Z,41.53
2019-05-21T22:58:20.983Z,46.30
2019-05-21T23:00:51.455Z,37.80
2019-05-21T23:03:20.954Z,35.75
2019-05-21T23:05:50.344Z,40.03
2019-05-21T23:08:20.688Z,40.55
2019-05-21T23:10:49.987Z,38.90
2019-05-21T23:13:19.283Z,41.45
2019-05-21T23:15:49.903Z,31.15
2019-05-21T23:18:37.327Z,34.70
2019-05-21T23:21:20.468Z,43.15
2019-05-21T23:23:51.220Z,33.08
2019-05-21T23:26:20.936Z,41.68
2019-05-21T23:28:50.607Z,48.50
2019-05-21T23:31:20.290Z,41.48
2019-05-21T23:33:50.269Z,49.25
2019-05-21T23:36:21.556Z,45.73
2019-05-21T23:38:51.139Z,45.73
2019-05-21T23:41:21.803Z,37.48
2019-05-21T23:43:52.743Z,33.10
2019-05-21T23:46:23.270Z,39.03
2019-05-21T23:48:52.572Z,37.90
2019-05-21T23:51:22.055Z,31.85
2019-05-21T23:53:51.441Z,31.02
2019-05-21T23:56:20.748Z,34.18
2019-05-21T23:58:50.126Z,32.03
